sensor_id;sensor_type;location;lat;lon;timestamp;temperature;humidity
41678;DHT22;27364;49.026;8.712;2022-12-20T00:01:51;2.00;99.90
41678;DHT22;27364;49.026;8.712;2022-12-20T00:04:17;2.00;99.90
41678;DHT22;27364;49.026;8.712;2022-12-20T00:06:42;2.00;99.90
41678;DHT22;27364;49.026;8.712;2022-12-20T00:09:10;2.10;99.90
41678;DHT22;27364;49.026;8.712;2022-12-20T00:11:38;2.10;99.90
41678;DHT22;27364;49.026;8.712;2022-12-20T00:14:04;2.10;99.90
41678;DHT22;27364;49.026;8.712;2022-12-20T00:16:29;2.10;99.90
41678;DHT22;27364;49.026;8.712;2022-12-20T00:19:00;2.10;99.90
41678;DHT22;27364;49.026;8.712;2022-12-20T00:21:27;2.10;99.90
41678;DHT22;27364;49.026;8.712;2022-12-20T00:23:54;2.10;99.90
41678;DHT22;27364;49.026;8.712;2022-12-20T00:26:22;2.10;99.90
41678;DHT22;27364;49.026;8.712;2022-12-20T00:28:48;2.10;99.90
41678;DHT22;27364;49.026;8.712;2022-12-20T00:31:16;2.10;99.90
41678;DHT22;27364;49.026;8.712;2022-12-20T00:33:45;2.10;99.90
41678;DHT22;27364;49.026;8.712;2022-12-20T00:36:11;2.10;99.90
41678;DHT22;27364;49.026;8.712;2022-12-20T00:38:36;2.20;99.90
41678;DHT22;27364;49.026;8.712;2022-12-20T00:41:07;2.30;99.90
41678;DHT22;27364;49.026;8.712;2022-12-20T00:43:33;2.20;99.90
41678;DHT22;27364;49.026;8.712;2022-12-20T00:45:59;2.20;99.90
41678;DHT22;27364;49.026;8.712;2022-12-20T00:48:26;2.20;99.90
41678;DHT22;27364;49.026;8.712;2022-12-20T00:50:58;2.20;99.90
41678;DHT22;27364;49.026;8.712;2022-12-20T00:53:23;2.20;99.90
41678;DHT22;27364;49.026;8.712;2022-12-20T00:55:49;2.30;99.90
41678;DHT22;27364;49.026;8.712;2022-12-20T00:58:15;2.40;99.90
41678;DHT22;27364;49.026;8.712;2022-12-20T01:00:40;2.50;99.90
41678;DHT22;27364;49.026;8.712;2022-12-20T01:03:06;2.60;99.90
41678;DHT22;27364;49.026;8.712;2022-12-20T01:05:32;2.70;99.90
41678;DHT22;27364;49.026;8.712;2022-12-20T01:07:58;2.80;99.90
41678;DHT22;27364;49.026;8.712;2022-12-20T01:10:24;2.90;99.90
41678;DHT22;27364;49.026;8.712;2022-12-20T01:12:49;3.00;99.90
41678;DHT22;27364;49.026;8.712;2022-12-20T01:15:15;3.10;99.90
41678;DHT22;27364;49.026;8.712;2022-12-20T01:17:41;3.20;99.90
41678;DHT22;27364;49.026;8.712;2022-12-20T01:20:07;3.20;99.90
41678;DHT22;27364;49.026;8.712;2022-12-20T01:22:32;3.20;99.90
41678;DHT22;27364;49.026;8.712;2022-12-20T01:24:58;3.30;99.90
41678;DHT22;27364;49.026;8.712;2022-12-20T01:27:24;3.30;99.90
41678;DHT22;27364;49.026;8.712;2022-12-20T01:29:50;3.30;99.90
41678;DHT22;27364;49.026;8.712;2022-12-20T01:32:15;3.30;99.90
41678;DHT22;27364;49.026;8.712;2022-12-20T01:34:41;3.30;99.90
41678;DHT22;27364;49.026;8.712;2022-12-20T01:37:06;3.30;99.90
41678;DHT22;27364;49.026;8.712;2022-12-20T01:39:32;3.30;99.90
41678;DHT22;27364;49.026;8.712;2022-12-20T01:41:57;3.30;99.90
41678;DHT22;27364;49.026;8.712;2022-12-20T01:46:49;3.40;99.90
41678;DHT22;27364;49.026;8.712;2022-12-20T01:49:29;3.40;99.90
41678;DHT22;27364;49.026;8.712;2022-12-20T01:52:08;3.50;99.90
41678;DHT22;27364;49.026;8.712;2022-12-20T01:54:42;3.50;99.90
41678;DHT22;27364;49.026;8.712;2022-12-20T01:57:13;3.50;99.90
41678;DHT22;27364;49.026;8.712;2022-12-20T01:59:41;3.50;99.90
41678;DHT22;27364;49.026;8.712;2022-12-20T02:02:10;3.60;99.90
41678;DHT22;27364;49.026;8.712;2022-12-20T02:04:37;3.50;99.90
41678;DHT22;27364;49.026;8.712;2022-12-20T02:07:04;3.50;99.90
41678;DHT22;27364;49.026;8.712;2022-12-20T02:09:31;3.60;99.90
41678;DHT22;27364;49.026;8.712;2022-12-20T02:12:20;3.60;99.90
41678;DHT22;27364;49.026;8.712;2022-12-20T02:20:25;3.60;99.90
41678;DHT22;27364;49.026;8.712;2022-12-20T02:23:15;3.50;99.90
41678;DHT22;27364;49.026;8.712;2022-12-20T02:25:52;3.50;99.90
41678;DHT22;27364;49.026;8.712;2022-12-20T02:31:42;3.40;99.90
41678;DHT22;27364;49.026;8.712;2022-12-20T02:34:09;3.40;99.90
41678;DHT22;27364;49.026;8.712;2022-12-20T02:36:36;3.50;99.90
41678;DHT22;27364;49.026;8.712;2022-12-20T02:39:01;3.50;99.90
41678;DHT22;27364;49.026;8.712;2022-12-20T02:41:45;3.50;99.90
41678;DHT22;27364;49.026;8.712;2022-12-20T02:44:14;3.50;99.90
41678;DHT22;27364;49.026;8.712;2022-12-20T02:47:01;3.60;99.90
41678;DHT22;27364;49.026;8.712;2022-12-20T02:49:33;3.60;99.90
41678;DHT22;27364;49.026;8.712;2022-12-20T02:52:00;3.60;99.90
41678;DHT22;27364;49.026;8.712;2022-12-20T02:54:27;3.70;99.90
41678;DHT22;27364;49.026;8.712;2022-12-20T02:57:37;3.70;99.90
41678;DHT22;27364;49.026;8.712;2022-12-20T03:00:07;3.70;99.90
41678;DHT22;27364;49.026;8.712;2022-12-20T03:02:35;3.70;99.90
41678;DHT22;27364;49.026;8.712;2022-12-20T03:05:22;3.70;99.90
41678;DHT22;27364;49.026;8.712;2022-12-20T03:07:48;3.70;99.90
41678;DHT22;27364;49.026;8.712;2022-12-20T03:10:15;3.80;99.90
41678;DHT22;27364;49.026;8.712;2022-12-20T03:12:41;3.80;99.90
41678;DHT22;27364;49.026;8.712;2022-12-20T03:15:06;3.80;99.90
41678;DHT22;27364;49.026;8.712;2022-12-20T03:17:32;3.80;99.90
41678;DHT22;27364;49.026;8.712;2022-12-20T03:19:57;3.80;99.90
41678;DHT22;27364;49.026;8.712;2022-12-20T03:22:23;3.90;99.90
41678;DHT22;27364;49.026;8.712;2022-12-20T03:24:49;3.90;99.90
41678;DHT22;27364;49.026;8.712;2022-12-20T03:27:14;3.90;99.90
41678;DHT22;27364;49.026;8.712;2022-12-20T03:29:40;3.90;99.90
41678;DHT22;27364;49.026;8.712;2022-12-20T03:32:06;4.00;99.90
41678;DHT22;27364;49.026;8.712;2022-12-20T03:34:32;4.10;99.90
41678;DHT22;27364;49.026;8.712;2022-12-20T03:36:57;4.10;99.90
41678;DHT22;27364;49.026;8.712;2022-12-20T03:39:23;4.00;99.90
41678;DHT22;27364;49.026;8.712;2022-12-20T03:41:48;4.10;99.90
41678;DHT22;27364;49.026;8.712;2022-12-20T03:44:14;4.00;99.90
41678;DHT22;27364;49.026;8.712;2022-12-20T03:46:39;4.10;99.90
41678;DHT22;27364;49.026;8.712;2022-12-20T03:49:05;4.10;99.90
41678;DHT22;27364;49.026;8.712;2022-12-20T03:51:30;4.10;99.90
41678;DHT22;27364;49.026;8.712;2022-12-20T03:53:56;4.10;99.90
41678;DHT22;27364;49.026;8.712;2022-12-20T03:56:22;4.10;99.90
41678;DHT22;27364;49.026;8.712;2022-12-20T03:58:47;4.10;99.90
41678;DHT22;27364;49.026;8.712;2022-12-20T04:01:21;4.20;99.90
41678;DHT22;27364;49.026;8.712;2022-12-20T04:03:47;4.20;99.90
41678;DHT22;27364;49.026;8.712;2022-12-20T04:06:13;4.10;99.90
41678;DHT22;27364;49.026;8.712;2022-12-20T04:08:39;4.20;99.90
41678;DHT22;27364;49.026;8.712;2022-12-20T04:11:04;4.20;99.90
41678;DHT22;27364;49.026;8.712;2022-12-20T04:13:47;4.20;99.90
41678;DHT22;27364;49.026;8.712;2022-12-20T04:16:14;4.20;99.90
41678;DHT22;27364;49.026;8.712;2022-12-20T04:18:40;4.10;99.90
41678;DHT22;27364;49.026;8.712;2022-12-20T04:21:06;4.20;99.90
41678;DHT22;27364;49.026;8.712;2022-12-20T04:23:36;4.30;99.90
41678;DHT22;27364;49.026;8.712;2022-12-20T04:26:06;4.30;99.90
41678;DHT22;27364;49.026;8.712;2022-12-20T04:28:33;4.30;99.90
41678;DHT22;27364;49.026;8.712;2022-12-20T04:30:58;4.30;99.90
41678;DHT22;27364;49.026;8.712;2022-12-20T04:33:24;4.20;99.90
41678;DHT22;27364;49.026;8.712;2022-12-20T04:35:50;4.30;99.90
41678;DHT22;27364;49.026;8.712;2022-12-20T04:38:17;4.30;99.90
41678;DHT22;27364;49.026;8.712;2022-12-20T04:40:43;4.40;99.90
41678;DHT22;27364;49.026;8.712;2022-12-20T04:43:08;4.40;99.90
41678;DHT22;27364;49.026;8.712;2022-12-20T04:45:34;4.40;99.90
41678;DHT22;27364;49.026;8.712;2022-12-20T04:48:00;4.50;99.90
41678;DHT22;27364;49.026;8.712;2022-12-20T04:50:25;4.40;99.90
41678;DHT22;27364;49.026;8.712;2022-12-20T04:52:51;4.50;99.90
41678;DHT22;27364;49.026;8.712;2022-12-20T04:55:39;4.60;99.90
41678;DHT22;27364;49.026;8.712;2022-12-20T04:58:05;4.60;99.90
41678;DHT22;27364;49.026;8.712;2022-12-20T05:00:31;4.50;99.90
41678;DHT22;27364;49.026;8.712;2022-12-20T05:02:57;4.50;99.90
41678;DHT22;27364;49.026;8.712;2022-12-20T05:05:23;4.50;99.90
41678;DHT22;27364;49.026;8.712;2022-12-20T05:07:49;4.50;99.90
41678;DHT22;27364;49.026;8.712;2022-12-20T05:10:15;4.60;99.90
41678;DHT22;27364;49.026;8.712;2022-12-20T05:12:40;4.60;99.90
41678;DHT22;27364;49.026;8.712;2022-12-20T05:15:06;4.60;99.90
41678;DHT22;27364;49.026;8.712;2022-12-20T05:17:32;4.60;99.90
41678;DHT22;27364;49.026;8.712;2022-12-20T05:19:58;4.60;99.90
41678;DHT22;27364;49.026;8.712;2022-12-20T05:22:23;4.60;99.90
41678;DHT22;27364;49.026;8.712;2022-12-20T05:25:11;4.60;99.90
41678;DHT22;27364;49.026;8.712;2022-12-20T05:27:56;4.60;99.90
41678;DHT22;27364;49.026;8.712;2022-12-20T05:30:21;4.60;99.90
41678;DHT22;27364;49.026;8.712;2022-12-20T05:32:47;4.60;99.90
41678;DHT22;27364;49.026;8.712;2022-12-20T05:35:12;4.60;99.90
41678;DHT22;27364;49.026;8.712;2022-12-20T05:37:38;4.60;99.90
41678;DHT22;27364;49.026;8.712;2022-12-20T05:40:05;4.60;99.90
41678;DHT22;27364;49.026;8.712;2022-12-20T05:42:31;4.60;99.90
41678;DHT22;27364;49.026;8.712;2022-12-20T05:44:56;4.60;99.90
41678;DHT22;27364;49.026;8.712;2022-12-20T05:47:21;4.70;99.90
41678;DHT22;27364;49.026;8.712;2022-12-20T05:49:47;4.60;99.90
41678;DHT22;27364;49.026;8.712;2022-12-20T05:52:12;4.60;99.90
41678;DHT22;27364;49.026;8.712;2022-12-20T05:54:38;4.60;99.90
41678;DHT22;27364;49.026;8.712;2022-12-20T05:57:03;4.60;99.90
41678;DHT22;27364;49.026;8.712;2022-12-20T05:59:29;4.60;99.90
41678;DHT22;27364;49.026;8.712;2022-12-20T06:01:54;4.70;99.90
41678;DHT22;27364;49.026;8.712;2022-12-20T06:04:20;4.70;99.90
41678;DHT22;27364;49.026;8.712;2022-12-20T06:06:46;4.60;99.90
41678;DHT22;27364;49.026;8.712;2022-12-20T06:09:11;4.70;99.90
41678;DHT22;27364;49.026;8.712;2022-12-20T06:11:37;4.60;99.90
41678;DHT22;27364;49.026;8.712;2022-12-20T06:14:03;4.60;99.90
41678;DHT22;27364;49.026;8.712;2022-12-20T06:16:28;4.60;99.90
41678;DHT22;27364;49.026;8.712;2022-12-20T06:18:54;4.60;99.90
41678;DHT22;27364;49.026;8.712;2022-12-20T06:21:20;4.50;99.90
41678;DHT22;27364;49.026;8.712;2022-12-20T06:23:45;4.40;99.90
41678;DHT22;27364;49.026;8.712;2022-12-20T06:26:11;4.40;99.90
41678;DHT22;27364;49.026;8.712;2022-12-20T06:28:36;4.30;99.90
41678;DHT22;27364;49.026;8.712;2022-12-20T06:31:08;4.20;99.90
41678;DHT22;27364;49.026;8.712;2022-12-20T06:33:34;4.20;99.90
41678;DHT22;27364;49.026;8.712;2022-12-20T06:36:00;4.20;99.90
41678;DHT22;27364;49.026;8.712;2022-12-20T06:38:26;4.20;99.90
41678;DHT22;27364;49.026;8.712;2022-12-20T06:40:51;4.10;99.90
41678;DHT22;27364;49.026;8.712;2022-12-20T06:43:17;4.20;99.90
41678;DHT22;27364;49.026;8.712;2022-12-20T06:45:42;4.20;99.90
41678;DHT22;27364;49.026;8.712;2022-12-20T06:48:09;4.20;99.90
41678;DHT22;27364;49.026;8.712;2022-12-20T06:50:34;4.20;99.90
41678;DHT22;27364;49.026;8.712;2022-12-20T06:53:00;4.10;99.90
41678;DHT22;27364;49.026;8.712;2022-12-20T06:55:25;4.10;99.90
41678;DHT22;27364;49.026;8.712;2022-12-20T06:57:51;4.10;99.90
41678;DHT22;27364;49.026;8.712;2022-12-20T07:00:17;4.10;99.90
41678;DHT22;27364;49.026;8.712;2022-12-20T07:02:42;4.20;99.90
41678;DHT22;27364;49.026;8.712;2022-12-20T07:05:09;4.20;99.90
41678;DHT22;27364;49.026;8.712;2022-12-20T07:07:35;4.20;99.90
41678;DHT22;27364;49.026;8.712;2022-12-20T07:10:01;4.30;99.90
41678;DHT22;27364;49.026;8.712;2022-12-20T07:12:27;4.30;99.90
41678;DHT22;27364;49.026;8.712;2022-12-20T07:14:52;4.40;99.90
41678;DHT22;27364;49.026;8.712;2022-12-20T07:17:18;4.40;99.90
41678;DHT22;27364;49.026;8.712;2022-12-20T07:19:43;4.40;99.90
41678;DHT22;27364;49.026;8.712;2022-12-20T07:22:09;4.50;99.90
41678;DHT22;27364;49.026;8.712;2022-12-20T07:24:34;4.50;99.90
41678;DHT22;27364;49.026;8.712;2022-12-20T07:27:00;4.50;99.90
41678;DHT22;27364;49.026;8.712;2022-12-20T07:29:26;4.50;99.90
41678;DHT22;27364;49.026;8.712;2022-12-20T07:31:52;4.60;99.90
41678;DHT22;27364;49.026;8.712;2022-12-20T07:34:17;4.60;99.90
41678;DHT22;27364;49.026;8.712;2022-12-20T07:36:43;4.60;99.90
41678;DHT22;27364;49.026;8.712;2022-12-20T07:39:09;4.60;99.90
41678;DHT22;27364;49.026;8.712;2022-12-20T07:41:35;4.60;99.90
41678;DHT22;27364;49.026;8.712;2022-12-20T07:44:00;4.60;99.90
41678;DHT22;27364;49.026;8.712;2022-12-20T07:46:26;4.70;99.90
41678;DHT22;27364;49.026;8.712;2022-12-20T07:48:52;4.70;99.90
41678;DHT22;27364;49.026;8.712;2022-12-20T07:51:24;4.70;99.90
41678;DHT22;27364;49.026;8.712;2022-12-20T07:54:27;4.80;99.90
41678;DHT22;27364;49.026;8.712;2022-12-20T07:56:51;4.80;99.90
41678;DHT22;27364;49.026;8.712;2022-12-20T07:59:20;4.80;99.90
41678;DHT22;27364;49.026;8.712;2022-12-20T08:01:49;4.80;99.90
41678;DHT22;27364;49.026;8.712;2022-12-20T08:04:18;4.80;99.90
41678;DHT22;27364;49.026;8.712;2022-12-20T08:06:45;4.80;99.90
41678;DHT22;27364;49.026;8.712;2022-12-20T08:09:13;4.80;99.90
41678;DHT22;27364;49.026;8.712;2022-12-20T08:11:40;4.90;99.90
41678;DHT22;27364;49.026;8.712;2022-12-20T08:14:07;4.80;99.90
41678;DHT22;27364;49.026;8.712;2022-12-20T08:16:33;4.90;99.90
41678;DHT22;27364;49.026;8.712;2022-12-20T08:18:59;4.80;99.90
41678;DHT22;27364;49.026;8.712;2022-12-20T08:21:24;4.90;99.90
41678;DHT22;27364;49.026;8.712;2022-12-20T08:23:50;5.00;99.90
41678;DHT22;27364;49.026;8.712;2022-12-20T08:26:16;5.00;99.90
41678;DHT22;27364;49.026;8.712;2022-12-20T08:28:42;5.00;99.90
41678;DHT22;27364;49.026;8.712;2022-12-20T08:31:08;5.00;99.90
41678;DHT22;27364;49.026;8.712;2022-12-20T08:33:35;5.00;99.90
41678;DHT22;27364;49.026;8.712;2022-12-20T08:36:04;5.00;99.90
41678;DHT22;27364;49.026;8.712;2022-12-20T08:38:31;5.00;99.90
41678;DHT22;27364;49.026;8.712;2022-12-20T08:41:05;5.00;99.90
41678;DHT22;27364;49.026;8.712;2022-12-20T08:43:32;5.00;99.90
41678;DHT22;27364;49.026;8.712;2022-12-20T08:45:58;5.00;99.90
41678;DHT22;27364;49.026;8.712;2022-12-20T08:48:25;5.00;99.90
41678;DHT22;27364;49.026;8.712;2022-12-20T08:50:58;5.10;99.90
41678;DHT22;27364;49.026;8.712;2022-12-20T08:53:25;5.10;99.90
41678;DHT22;27364;49.026;8.712;2022-12-20T08:55:51;5.10;99.90
41678;DHT22;27364;49.026;8.712;2022-12-20T08:58:17;5.10;99.90
41678;DHT22;27364;49.026;8.712;2022-12-20T09:00:43;5.20;99.90
41678;DHT22;27364;49.026;8.712;2022-12-20T09:03:09;5.20;99.90
41678;DHT22;27364;49.026;8.712;2022-12-20T09:05:36;5.20;99.90
41678;DHT22;27364;49.026;8.712;2022-12-20T09:08:07;5.30;99.90
41678;DHT22;27364;49.026;8.712;2022-12-20T09:10:32;5.30;99.90
41678;DHT22;27364;49.026;8.712;2022-12-20T09:12:58;5.30;99.90
41678;DHT22;27364;49.026;8.712;2022-12-20T09:15:24;5.30;99.90
41678;DHT22;27364;49.026;8.712;2022-12-20T09:17:52;5.30;99.90
41678;DHT22;27364;49.026;8.712;2022-12-20T09:20:17;5.30;99.90
41678;DHT22;27364;49.026;8.712;2022-12-20T09:22:43;5.40;99.90
41678;DHT22;27364;49.026;8.712;2022-12-20T09:25:09;5.40;99.90
41678;DHT22;27364;49.026;8.712;2022-12-20T09:27:34;5.50;99.90
41678;DHT22;27364;49.026;8.712;2022-12-20T09:30:00;5.50;99.90
41678;DHT22;27364;49.026;8.712;2022-12-20T09:32:25;5.50;99.90
41678;DHT22;27364;49.026;8.712;2022-12-20T09:34:51;5.50;99.90
41678;DHT22;27364;49.026;8.712;2022-12-20T09:37:16;5.50;99.90
41678;DHT22;27364;49.026;8.712;2022-12-20T09:39:42;5.60;99.90
41678;DHT22;27364;49.026;8.712;2022-12-20T09:42:08;5.60;99.90
41678;DHT22;27364;49.026;8.712;2022-12-20T09:44:38;5.70;99.90
41678;DHT22;27364;49.026;8.712;2022-12-20T09:47:13;5.70;99.90
41678;DHT22;27364;49.026;8.712;2022-12-20T09:49:43;5.80;99.90
41678;DHT22;27364;49.026;8.712;2022-12-20T09:55:34;5.90;99.90
41678;DHT22;27364;49.026;8.712;2022-12-20T10:00:43;5.90;99.90
41678;DHT22;27364;49.026;8.712;2022-12-20T10:03:24;6.00;99.90
41678;DHT22;27364;49.026;8.712;2022-12-20T10:05:57;6.00;99.90
41678;DHT22;27364;49.026;8.712;2022-12-20T10:08:28;6.00;99.90
41678;DHT22;27364;49.026;8.712;2022-12-20T10:11:04;5.90;99.90
41678;DHT22;27364;49.026;8.712;2022-12-20T10:19:16;6.00;99.90
41678;DHT22;27364;49.026;8.712;2022-12-20T10:24:19;5.90;99.90
41678;DHT22;27364;49.026;8.712;2022-12-20T10:26:47;5.90;99.90
41678;DHT22;27364;49.026;8.712;2022-12-20T10:29:14;6.00;99.90
41678;DHT22;27364;49.026;8.712;2022-12-20T10:31:40;6.00;99.90
41678;DHT22;27364;49.026;8.712;2022-12-20T10:34:06;6.00;99.90
41678;DHT22;27364;49.026;8.712;2022-12-20T10:36:36;6.00;99.90
41678;DHT22;27364;49.026;8.712;2022-12-20T10:39:05;6.00;99.90
41678;DHT22;27364;49.026;8.712;2022-12-20T10:46:50;6.10;99.90
41678;DHT22;27364;49.026;8.712;2022-12-20T10:49:30;6.20;99.90
41678;DHT22;27364;49.026;8.712;2022-12-20T10:51:57;6.20;99.90
41678;DHT22;27364;49.026;8.712;2022-12-20T10:54:36;6.20;99.90
41678;DHT22;27364;49.026;8.712;2022-12-20T10:57:18;6.20;99.90
41678;DHT22;27364;49.026;8.712;2022-12-20T11:02:31;6.30;99.90
41678;DHT22;27364;49.026;8.712;2022-12-20T11:05:02;6.40;99.90
41678;DHT22;27364;49.026;8.712;2022-12-20T11:07:30;6.40;99.90
41678;DHT22;27364;49.026;8.712;2022-12-20T11:10:20;6.40;99.90
41678;DHT22;27364;49.026;8.712;2022-12-20T11:12:55;6.40;99.90
41678;DHT22;27364;49.026;8.712;2022-12-20T11:15:33;6.40;99.90
41678;DHT22;27364;49.026;8.712;2022-12-20T11:18:09;6.40;99.90
41678;DHT22;27364;49.026;8.712;2022-12-20T11:20:40;6.40;99.90
41678;DHT22;27364;49.026;8.712;2022-12-20T11:23:14;6.40;99.90
41678;DHT22;27364;49.026;8.712;2022-12-20T11:36:00;6.50;99.90
41678;DHT22;27364;49.026;8.712;2022-12-20T11:38:49;6.50;99.90
41678;DHT22;27364;49.026;8.712;2022-12-20T11:44:14;6.60;99.90
41678;DHT22;27364;49.026;8.712;2022-12-20T11:49:47;6.60;99.90
41678;DHT22;27364;49.026;8.712;2022-12-20T11:55:25;6.60;99.90
41678;DHT22;27364;49.026;8.712;2022-12-20T11:58:17;6.60;99.90
41678;DHT22;27364;49.026;8.712;2022-12-20T12:00:55;6.70;99.90
41678;DHT22;27364;49.026;8.712;2022-12-20T12:03:29;6.70;99.90
41678;DHT22;27364;49.026;8.712;2022-12-20T12:06:22;6.70;99.90
41678;DHT22;27364;49.026;8.712;2022-12-20T12:08:53;6.80;99.90
41678;DHT22;27364;49.026;8.712;2022-12-20T12:11:29;6.80;99.90
41678;DHT22;27364;49.026;8.712;2022-12-20T12:13:56;6.80;99.90
41678;DHT22;27364;49.026;8.712;2022-12-20T12:16:30;6.80;99.90
41678;DHT22;27364;49.026;8.712;2022-12-20T12:18:59;6.90;99.90
41678;DHT22;27364;49.026;8.712;2022-12-20T12:21:30;6.90;99.90
41678;DHT22;27364;49.026;8.712;2022-12-20T12:26:37;6.90;99.90
41678;DHT22;27364;49.026;8.712;2022-12-20T12:34:37;7.00;99.90
41678;DHT22;27364;49.026;8.712;2022-12-20T12:37:36;7.00;99.90
41678;DHT22;27364;49.026;8.712;2022-12-20T12:45:35;7.10;99.90
41678;DHT22;27364;49.026;8.712;2022-12-20T12:48:16;7.10;99.90
41678;DHT22;27364;49.026;8.712;2022-12-20T12:50:47;7.10;99.90
41678;DHT22;27364;49.026;8.712;2022-12-20T12:53:21;7.10;99.90
41678;DHT22;27364;49.026;8.712;2022-12-20T12:55:50;7.20;99.90
41678;DHT22;27364;49.026;8.712;2022-12-20T13:03:43;7.20;99.90
41678;DHT22;27364;49.026;8.712;2022-12-20T13:11:40;7.20;99.90
41678;DHT22;27364;49.026;8.712;2022-12-20T13:19:39;7.20;99.90
41678;DHT22;27364;49.026;8.712;2022-12-20T13:25:00;7.20;99.90
41678;DHT22;27364;49.026;8.712;2022-12-20T13:27:31;7.20;99.90
41678;DHT22;27364;49.026;8.712;2022-12-20T13:38:01;7.30;99.90
41678;DHT22;27364;49.026;8.712;2022-12-20T13:40:47;7.30;99.90
41678;DHT22;27364;49.026;8.712;2022-12-20T13:45:48;7.30;99.90
41678;DHT22;27364;49.026;8.712;2022-12-20T13:48:18;7.30;99.90
41678;DHT22;27364;49.026;8.712;2022-12-20T13:50:49;7.30;99.90
41678;DHT22;27364;49.026;8.712;2022-12-20T13:53:18;7.30;99.90
41678;DHT22;27364;49.026;8.712;2022-12-20T13:55:44;7.30;99.90
41678;DHT22;27364;49.026;8.712;2022-12-20T13:58:20;7.30;99.90
41678;DHT22;27364;49.026;8.712;2022-12-20T14:00:48;7.30;99.90
41678;DHT22;27364;49.026;8.712;2022-12-20T14:03:23;7.30;99.90
41678;DHT22;27364;49.026;8.712;2022-12-20T14:05:55;7.30;99.90
41678;DHT22;27364;49.026;8.712;2022-12-20T14:08:25;7.30;99.90
41678;DHT22;27364;49.026;8.712;2022-12-20T14:10:52;7.20;99.90
41678;DHT22;27364;49.026;8.712;2022-12-20T14:13:23;7.20;99.90
41678;DHT22;27364;49.026;8.712;2022-12-20T14:15:49;7.20;99.90
41678;DHT22;27364;49.026;8.712;2022-12-20T14:18:23;7.20;99.90
41678;DHT22;27364;49.026;8.712;2022-12-20T14:20:54;7.20;99.90
41678;DHT22;27364;49.026;8.712;2022-12-20T14:23:36;7.20;99.90
41678;DHT22;27364;49.026;8.712;2022-12-20T14:26:02;7.20;99.90
41678;DHT22;27364;49.026;8.712;2022-12-20T14:28:29;7.20;99.90
41678;DHT22;27364;49.026;8.712;2022-12-20T14:30:58;7.20;99.90
41678;DHT22;27364;49.026;8.712;2022-12-20T14:33:34;7.20;99.90
41678;DHT22;27364;49.026;8.712;2022-12-20T14:36:30;7.20;99.90
41678;DHT22;27364;49.026;8.712;2022-12-20T14:38:56;7.20;99.90
41678;DHT22;27364;49.026;8.712;2022-12-20T14:41:36;7.20;99.90
41678;DHT22;27364;49.026;8.712;2022-12-20T14:44:15;7.20;99.90
41678;DHT22;27364;49.026;8.712;2022-12-20T14:46:53;7.30;99.90
41678;DHT22;27364;49.026;8.712;2022-12-20T14:49:30;7.30;99.90
41678;DHT22;27364;49.026;8.712;2022-12-20T14:54:59;7.20;99.90
41678;DHT22;27364;49.026;8.712;2022-12-20T15:00:09;7.20;99.90
41678;DHT22;27364;49.026;8.712;2022-12-20T15:08:32;7.10;99.90
41678;DHT22;27364;49.026;8.712;2022-12-20T15:16:11;7.00;99.90
41678;DHT22;27364;49.026;8.712;2022-12-20T15:18:37;7.00;99.90
41678;DHT22;27364;49.026;8.712;2022-12-20T15:21:05;7.00;99.90
41678;DHT22;27364;49.026;8.712;2022-12-20T15:23:34;6.90;99.90
41678;DHT22;27364;49.026;8.712;2022-12-20T15:26:00;6.90;99.90
41678;DHT22;27364;49.026;8.712;2022-12-20T15:28:26;6.80;99.90
41678;DHT22;27364;49.026;8.712;2022-12-20T15:30:52;6.80;99.90
41678;DHT22;27364;49.026;8.712;2022-12-20T15:33:24;6.80;99.90
41678;DHT22;27364;49.026;8.712;2022-12-20T15:35:51;6.80;99.90
41678;DHT22;27364;49.026;8.712;2022-12-20T15:38:22;6.70;99.90
41678;DHT22;27364;49.026;8.712;2022-12-20T15:40:50;6.70;99.90
41678;DHT22;27364;49.026;8.712;2022-12-20T15:43:19;6.70;99.90
41678;DHT22;27364;49.026;8.712;2022-12-20T15:45:48;6.60;99.90
41678;DHT22;27364;49.026;8.712;2022-12-20T15:48:17;6.60;99.90
41678;DHT22;27364;49.026;8.712;2022-12-20T15:50:47;6.60;99.90
41678;DHT22;27364;49.026;8.712;2022-12-20T15:53:15;6.60;99.90
41678;DHT22;27364;49.026;8.712;2022-12-20T15:55:41;6.50;99.90
41678;DHT22;27364;49.026;8.712;2022-12-20T15:58:08;6.50;99.90
41678;DHT22;27364;49.026;8.712;2022-12-20T16:00:39;6.50;99.90
41678;DHT22;27364;49.026;8.712;2022-12-20T16:03:12;6.50;99.90
41678;DHT22;27364;49.026;8.712;2022-12-20T16:05:38;6.50;99.90
41678;DHT22;27364;49.026;8.712;2022-12-20T16:08:04;6.50;99.90
41678;DHT22;27364;49.026;8.712;2022-12-20T16:10:30;6.50;99.90
41678;DHT22;27364;49.026;8.712;2022-12-20T16:12:55;6.50;99.90
41678;DHT22;27364;49.026;8.712;2022-12-20T16:15:21;6.60;99.90
41678;DHT22;27364;49.026;8.712;2022-12-20T16:17:47;6.60;99.90
41678;DHT22;27364;49.026;8.712;2022-12-20T16:20:13;6.60;99.90
41678;DHT22;27364;49.026;8.712;2022-12-20T16:22:38;6.70;99.90
41678;DHT22;27364;49.026;8.712;2022-12-20T16:25:04;6.70;99.90
41678;DHT22;27364;49.026;8.712;2022-12-20T16:27:30;6.70;99.90
41678;DHT22;27364;49.026;8.712;2022-12-20T16:29:55;6.70;99.90
41678;DHT22;27364;49.026;8.712;2022-12-20T16:32:21;6.70;99.90
41678;DHT22;27364;49.026;8.712;2022-12-20T16:34:50;6.70;99.90
41678;DHT22;27364;49.026;8.712;2022-12-20T16:37:16;6.70;99.90
41678;DHT22;27364;49.026;8.712;2022-12-20T16:39:42;6.60;99.90
41678;DHT22;27364;49.026;8.712;2022-12-20T16:42:18;6.60;99.90
41678;DHT22;27364;49.026;8.712;2022-12-20T16:44:50;6.60;99.90
41678;DHT22;27364;49.026;8.712;2022-12-20T16:47:16;6.60;99.90
41678;DHT22;27364;49.026;8.712;2022-12-20T16:49:42;6.50;99.90
41678;DHT22;27364;49.026;8.712;2022-12-20T16:52:14;6.50;99.90
41678;DHT22;27364;49.026;8.712;2022-12-20T16:54:40;6.50;99.90
41678;DHT22;27364;49.026;8.712;2022-12-20T16:57:05;6.50;99.90
41678;DHT22;27364;49.026;8.712;2022-12-20T16:59:31;6.60;99.90
41678;DHT22;27364;49.026;8.712;2022-12-20T17:01:57;6.50;99.90
41678;DHT22;27364;49.026;8.712;2022-12-20T17:04:23;6.40;99.90
41678;DHT22;27364;49.026;8.712;2022-12-20T17:06:49;6.40;99.90
41678;DHT22;27364;49.026;8.712;2022-12-20T17:09:15;6.40;99.90
41678;DHT22;27364;49.026;8.712;2022-12-20T17:11:41;6.30;99.90
41678;DHT22;27364;49.026;8.712;2022-12-20T17:14:06;6.30;99.90
41678;DHT22;27364;49.026;8.712;2022-12-20T17:16:32;6.30;99.90
41678;DHT22;27364;49.026;8.712;2022-12-20T17:18:57;6.40;99.90
41678;DHT22;27364;49.026;8.712;2022-12-20T17:21:36;6.40;99.90
41678;DHT22;27364;49.026;8.712;2022-12-20T17:24:03;6.40;99.90
41678;DHT22;27364;49.026;8.712;2022-12-20T17:26:32;6.40;99.90
41678;DHT22;27364;49.026;8.712;2022-12-20T17:28:58;6.40;99.90
41678;DHT22;27364;49.026;8.712;2022-12-20T17:31:36;6.40;99.90
41678;DHT22;27364;49.026;8.712;2022-12-20T17:34:04;6.40;99.90
41678;DHT22;27364;49.026;8.712;2022-12-20T17:36:30;6.40;99.90
41678;DHT22;27364;49.026;8.712;2022-12-20T17:38:56;6.40;99.90
41678;DHT22;27364;49.026;8.712;2022-12-20T17:41:30;6.50;99.90
41678;DHT22;27364;49.026;8.712;2022-12-20T17:43:58;6.50;99.90
41678;DHT22;27364;49.026;8.712;2022-12-20T17:46:24;6.50;99.90
41678;DHT22;27364;49.026;8.712;2022-12-20T17:48:50;6.50;99.90